createdAt,value
2019-01-09T00:01:41.679Z,3.40
2019-01-09T00:04:30.025Z,2.63
2019-01-09T00:07:18.256Z,3.00
2019-01-09T00:13:06.716Z,2.83
2019-01-09T00:15:35.801Z,2.90
2019-01-09T00:18:24.796Z,3.37
2019-01-09T00:21:13.207Z,2.67
2019-01-09T00:24:01.647Z,3.17
2019-01-09T00:26:49.813Z,2.53
2019-01-09T00:29:37.992Z,2.90
2019-01-09T00:32:07.184Z,3.20
2019-01-09T00:34:55.709Z,3.07
2019-01-09T00:37:44.213Z,2.60
2019-01-09T00:40:13.273Z,2.70
2019-01-09T00:43:01.445Z,2.77
2019-01-09T00:45:49.649Z,2.90
2019-01-09T00:48:18.785Z,3.40
2019-01-09T00:51:06.953Z,3.77
2019-01-09T00:53:55.135Z,2.90
2019-01-09T00:56:42.733Z,3.20
2019-01-09T00:59:30.357Z,3.00
2019-01-09T01:02:17.973Z,3.43
2019-01-09T01:05:05.585Z,3.37
2019-01-09T01:07:53.225Z,3.60
2019-01-09T01:10:40.894Z,3.33
2019-01-09T01:13:31.594Z,3.30
2019-01-09T01:16:36.874Z,2.70
2019-01-09T01:19:24.497Z,3.83
2019-01-09T01:22:12.384Z,3.57
2019-01-09T01:24:59.990Z,3.30
2019-01-09T01:27:47.618Z,3.63
2019-01-09T01:30:35.242Z,3.60
2019-01-09T01:33:22.882Z,3.10
2019-01-09T01:36:10.502Z,3.80
2019-01-09T01:38:58.378Z,3.13
2019-01-09T01:41:46.006Z,3.33
2019-01-09T01:44:33.638Z,3.37
2019-01-09T01:47:21.354Z,3.03
2019-01-09T01:50:08.978Z,2.50
2019-01-09T01:52:56.574Z,2.87
2019-01-09T01:55:44.458Z,2.93
2019-01-09T01:58:27.402Z,2.53
2019-01-09T02:01:15.019Z,2.93
2019-01-09T02:04:02.639Z,2.80
2019-01-09T02:06:40.507Z,3.20
2019-01-09T02:09:28.126Z,2.97
2019-01-09T02:12:15.758Z,3.00
2019-01-09T02:15:03.359Z,3.37
2019-01-09T02:17:50.991Z,3.30
2019-01-09T02:20:41.383Z,3.20
2019-01-09T02:23:29.002Z,3.50
2019-01-09T02:26:16.635Z,3.00
2019-01-09T02:29:04.267Z,3.83
2019-01-09T02:31:51.947Z,3.50
2019-01-09T02:34:20.532Z,3.60
2019-01-09T02:37:08.156Z,3.63
2019-01-09T02:39:55.948Z,2.97
2019-01-09T02:42:43.652Z,3.10
2019-01-09T02:45:31.276Z,3.87
2019-01-09T02:48:18.900Z,3.20
2019-01-09T02:51:06.519Z,3.30
2019-01-09T02:53:54.304Z,2.63
2019-01-09T02:56:22.856Z,2.93
2019-01-09T02:59:10.832Z,3.10
2019-01-09T03:01:58.455Z,2.70
2019-01-09T03:04:46.084Z,3.17
2019-01-09T03:07:33.792Z,3.50
2019-01-09T03:10:21.428Z,3.40
2019-01-09T03:16:01.908Z,2.40
2019-01-09T03:18:49.528Z,2.77
2019-01-09T03:21:37.160Z,3.50
2019-01-09T03:24:06.356Z,2.95
2019-01-09T03:26:53.996Z,3.60
2019-01-09T03:29:41.654Z,3.23
2019-01-09T03:32:29.326Z,2.63
2019-01-09T03:35:16.979Z,2.67
2019-01-09T03:38:04.668Z,2.50
2019-01-09T03:40:52.284Z,2.73
2019-01-09T03:43:39.920Z,2.33
2019-01-09T03:46:27.544Z,2.07
2019-01-09T03:49:15.189Z,2.50
2019-01-09T03:52:02.796Z,2.80
2019-01-09T03:54:31.328Z,2.33
2019-01-09T03:56:59.825Z,2.33
2019-01-09T03:59:47.475Z,2.40
2019-01-09T04:02:35.170Z,2.63
2019-01-09T04:05:03.720Z,2.50
2019-01-09T04:07:51.368Z,3.00
2019-01-09T04:10:38.996Z,2.83
2019-01-09T04:13:26.601Z,2.33
2019-01-09T04:16:14.220Z,2.70
2019-01-09T04:51:46.749Z,4.23
2019-01-09T04:54:34.392Z,4.07
2019-01-09T04:57:22.021Z,3.97
2019-01-09T05:00:09.642Z,3.60
2019-01-09T05:02:57.277Z,3.67
2019-01-09T05:05:44.897Z,4.00
2019-01-09T05:08:32.513Z,4.27
2019-01-09T05:11:20.129Z,3.97
2019-01-09T06:31:28.159Z,5.00
2019-01-09T06:34:15.754Z,5.20
2019-01-09T06:37:03.367Z,4.80
2019-01-09T06:39:51.006Z,4.97
2019-01-09T06:42:38.638Z,5.20
2019-01-09T06:45:26.242Z,6.07
2019-01-09T06:48:13.943Z,5.37
2019-01-09T06:51:01.542Z,5.10
2019-01-09T06:53:49.203Z,4.97
2019-01-09T06:56:36.855Z,4.67
2019-01-09T06:59:24.751Z,4.53
2019-01-09T07:01:53.246Z,5.20
2019-01-09T07:04:40.950Z,4.37
2019-01-09T07:07:35.959Z,4.47
2019-01-09T07:10:17.919Z,3.90
2019-01-09T07:31:11.559Z,3.50
2019-01-09T07:39:51.091Z,3.37
2019-01-09T07:42:38.739Z,3.97
2019-01-09T07:45:08.479Z,3.23
2019-01-09T07:47:36.971Z,3.40
2019-01-09T07:50:24.602Z,3.43
2019-01-09T07:53:12.240Z,3.57
2019-01-09T07:55:59.930Z,3.03
2019-01-09T07:58:28.368Z,3.30
2019-01-09T08:01:15.996Z,3.53
2019-01-09T08:04:03.687Z,3.40
2019-01-09T08:06:32.148Z,3.20
2019-01-09T08:09:00.628Z,2.60
2019-01-09T08:11:29.104Z,3.20
2019-01-09T08:13:57.627Z,3.53
2019-01-09T08:16:26.144Z,3.07
2019-01-09T08:18:54.624Z,3.10
2019-01-09T08:21:23.053Z,2.57
2019-01-09T08:23:51.800Z,3.30
2019-01-09T08:26:20.228Z,2.97
2019-01-09T08:28:48.831Z,3.57
2019-01-09T08:31:17.272Z,3.07
2019-01-09T08:33:45.688Z,2.90
2019-01-09T08:36:14.284Z,2.90
2019-01-09T08:38:42.984Z,3.50
2019-01-09T08:41:11.568Z,4.00
2019-01-09T08:43:39.968Z,3.40
2019-01-09T08:46:08.597Z,2.57
2019-01-09T08:48:37.097Z,2.77
2019-01-09T08:51:05.597Z,3.23
2019-01-09T08:53:34.264Z,2.80
2019-01-09T08:56:03.340Z,3.33
2019-01-09T08:58:31.965Z,3.23
2019-01-09T09:01:00.452Z,2.50
2019-01-09T09:03:29.001Z,2.97
2019-01-09T09:05:57.452Z,2.70
2019-01-09T09:08:26.056Z,2.90
2019-01-09T09:10:54.614Z,2.93
2019-01-09T09:13:26.902Z,2.60
2019-01-09T09:15:55.417Z,2.67
2019-01-09T09:18:23.933Z,3.00
2019-01-09T09:20:52.576Z,3.13
2019-01-09T09:23:21.305Z,2.83
2019-01-09T09:25:49.885Z,2.83
2019-01-09T09:28:18.293Z,2.53
2019-01-09T09:30:46.825Z,2.57
2019-01-09T09:33:15.375Z,2.77
2019-01-09T09:35:43.870Z,3.27
2019-01-09T09:38:20.206Z,2.73
2019-01-09T09:40:42.705Z,3.53
2019-01-09T09:43:11.253Z,3.17
2019-01-09T09:45:39.741Z,2.97
2019-01-09T09:48:08.449Z,3.50
2019-01-09T09:50:36.985Z,3.00
2019-01-09T09:53:05.389Z,2.80
2019-01-09T09:55:33.901Z,2.80
2019-01-09T09:58:05.919Z,3.43
2019-01-09T10:00:33.358Z,2.40
2019-01-09T10:03:01.905Z,2.63
2019-01-09T10:05:30.998Z,2.87
2019-01-09T10:07:59.605Z,2.40
2019-01-09T10:10:28.102Z,3.60
2019-01-09T10:12:56.598Z,2.83
2019-01-09T10:15:25.086Z,2.80
2019-01-09T10:17:53.727Z,2.63
2019-01-09T10:20:22.918Z,2.60
2019-01-09T10:22:52.178Z,2.57
2019-01-09T10:25:20.722Z,2.97
2019-01-09T10:27:49.662Z,2.97
2019-01-09T10:30:19.394Z,2.70
2019-01-09T10:32:48.370Z,2.83
2019-01-09T10:35:17.666Z,2.73
2019-01-09T10:37:47.406Z,3.37
2019-01-09T10:40:18.246Z,2.77
2019-01-09T10:42:47.438Z,2.70
2019-01-09T10:45:18.970Z,2.37
2019-01-09T10:47:48.157Z,1.93
2019-01-09T10:50:23.252Z,2.60
2019-01-09T10:52:52.226Z,2.63
2019-01-09T10:55:21.294Z,2.47
2019-01-09T10:57:50.353Z,2.23
2019-01-09T11:00:21.819Z,2.73
2019-01-09T11:02:50.998Z,2.53
2019-01-09T11:05:20.054Z,2.27
2019-01-09T11:07:49.402Z,1.90
2019-01-09T11:10:18.766Z,2.70
2019-01-09T11:12:48.763Z,2.50
2019-01-09T11:15:17.966Z,2.30
2019-01-09T11:17:47.263Z,2.67
2019-01-09T11:20:18.238Z,2.80
2019-01-09T11:22:47.444Z,2.63
2019-01-09T11:25:19.041Z,3.23
2019-01-09T11:27:48.147Z,2.67
2019-01-09T11:30:17.583Z,2.87
2019-01-09T11:32:47.035Z,2.77
2019-01-09T11:35:17.699Z,2.85
2019-01-09T11:37:46.876Z,3.17
2019-01-09T11:40:17.267Z,2.77
2019-01-09T11:42:46.321Z,2.27
2019-01-09T11:45:16.772Z,3.10
2019-01-09T11:47:45.859Z,2.93
2019-01-09T11:50:15.254Z,2.83
2019-01-09T11:52:44.627Z,2.90
2019-01-09T11:55:14.331Z,2.30
2019-01-09T11:57:43.475Z,2.43
2019-01-09T12:00:26.479Z,2.53
2019-01-09T12:02:55.799Z,2.10
2019-01-09T12:05:24.804Z,2.33
2019-01-09T12:07:53.911Z,2.50
2019-01-09T12:10:29.979Z,3.20
2019-01-09T12:12:54.744Z,2.83
2019-01-09T12:15:23.949Z,2.60
2019-01-09T12:17:53.240Z,2.80
2019-01-09T12:20:22.331Z,2.20
2019-01-09T12:22:51.391Z,2.57
2019-01-09T12:25:20.520Z,2.53
2019-01-09T12:27:49.568Z,2.47
2019-01-09T12:30:26.880Z,3.10
2019-01-09T12:32:55.941Z,3.33
2019-01-09T12:35:25.072Z,2.10
2019-01-09T12:37:54.184Z,2.67
2019-01-09T12:40:23.301Z,2.47
2019-01-09T12:42:52.296Z,2.67
2019-01-09T12:45:21.388Z,2.67
2019-01-09T12:47:50.389Z,2.83
2019-01-09T12:50:24.984Z,2.33
2019-01-09T12:52:54.179Z,2.67
2019-01-09T12:55:23.208Z,3.07
2019-01-09T12:57:52.332Z,4.40
2019-01-09T13:00:26.337Z,2.67
2019-01-09T13:02:55.318Z,2.63
2019-01-09T13:05:24.383Z,2.50
2019-01-09T13:07:53.472Z,2.63
2019-01-09T13:10:22.673Z,2.90
2019-01-09T13:12:52.875Z,2.20
2019-01-09T13:15:22.074Z,2.83
2019-01-09T13:17:51.055Z,2.13
2019-01-09T13:20:20.087Z,2.20
2019-01-09T13:22:49.157Z,2.27
2019-01-09T13:25:18.808Z,2.50
2019-01-09T13:27:47.865Z,2.90
2019-01-09T13:30:21.913Z,2.40
2019-01-09T13:32:50.964Z,2.33
2019-01-09T13:35:20.121Z,2.30
2019-01-09T13:37:49.169Z,3.50
2019-01-09T13:40:19.561Z,3.10
2019-01-09T13:42:48.800Z,2.30
2019-01-09T13:45:20.288Z,2.60
2019-01-09T13:47:49.633Z,1.80
2019-01-09T13:50:18.976Z,2.30
2019-01-09T13:52:48.135Z,2.50
2019-01-09T13:55:17.308Z,4.17
2019-01-09T13:57:46.387Z,2.80
2019-01-09T14:00:20.907Z,2.50
2019-01-09T14:02:50.053Z,2.80
2019-01-09T14:05:19.097Z,2.27
2019-01-09T14:08:07.286Z,2.80
2019-01-09T14:10:55.460Z,2.10
2019-01-09T14:13:43.693Z,2.80
2019-01-09T14:16:31.841Z,2.70
2019-01-09T14:19:20.013Z,2.73
2019-01-09T14:21:49.562Z,2.83
2019-01-09T14:24:37.732Z,2.90
2019-01-09T14:27:07.073Z,3.37
2019-01-09T14:29:55.265Z,3.47
2019-01-09T14:32:43.478Z,2.83
2019-01-09T14:35:31.646Z,2.57
2019-01-09T14:41:13.518Z,3.13
2019-01-09T14:44:01.715Z,2.70
2019-01-09T14:46:30.687Z,2.50
2019-01-09T14:49:18.858Z,2.93
2019-01-09T14:52:07.094Z,2.27
2019-01-09T14:54:55.266Z,2.37
2019-01-09T15:03:44.502Z,2.67
2019-01-09T15:06:32.694Z,2.87
2019-01-09T15:09:20.867Z,2.67
2019-01-09T15:14:43.958Z,3.72
2019-01-09T15:17:13.057Z,2.60
2019-01-09T15:20:01.196Z,2.80
2019-01-09T15:22:49.542Z,2.90
2019-01-09T15:25:37.979Z,2.60
2019-01-09T15:28:18.999Z,2.17
2019-01-09T15:31:00.035Z,2.60
2019-01-09T15:33:41.192Z,2.87
2019-01-09T15:36:21.646Z,2.77
2019-01-09T15:38:50.711Z,2.83
2019-01-09T15:41:38.887Z,2.57
2019-01-09T15:44:27.150Z,2.10
2019-01-09T15:47:15.331Z,2.50
2019-01-09T15:50:03.863Z,2.20
2019-01-09T15:52:52.072Z,2.30
2019-01-09T15:55:40.619Z,2.50
2019-01-09T15:58:09.667Z,2.03
2019-01-09T16:00:58.052Z,1.97
2019-01-09T16:03:46.343Z,2.77
2019-01-09T16:06:15.519Z,2.20
2019-01-09T16:09:24.272Z,2.50
2019-01-09T16:11:53.903Z,2.40
2019-01-09T16:14:22.996Z,2.77
2019-01-09T16:17:11.232Z,2.10
2019-01-09T16:19:59.391Z,2.27
2019-01-09T16:23:08.544Z,2.47
2019-01-09T16:25:56.793Z,2.03
2019-01-09T16:28:45.035Z,2.83
2019-01-09T16:31:26.336Z,2.90
2019-01-09T16:34:06.920Z,2.57
2019-01-09T16:36:48.131Z,2.57
2019-01-09T16:39:30.992Z,2.47
2019-01-09T16:42:11.747Z,2.40
2019-01-09T16:44:52.396Z,2.63
2019-01-09T16:47:21.484Z,3.37
2019-01-09T16:50:11.054Z,3.13
2019-01-09T16:52:59.252Z,3.60
2019-01-09T16:55:47.815Z,3.40
2019-01-09T16:58:36.056Z,3.00
2019-01-09T17:01:05.607Z,3.87
2019-01-09T17:03:34.772Z,2.87
2019-01-09T17:06:25.080Z,3.00
2019-01-09T17:08:54.488Z,2.87
2019-01-09T17:11:24.252Z,2.85
2019-01-09T17:14:12.412Z,3.70
2019-01-09T17:17:00.604Z,3.10
2019-01-09T17:19:29.660Z,2.60
2019-01-09T17:22:17.940Z,3.03
2019-01-09T17:25:06.420Z,2.70
2019-01-09T17:27:54.596Z,2.77
2019-01-09T17:30:25.713Z,2.67
2019-01-09T17:32:54.840Z,2.80
2019-01-09T17:35:23.913Z,2.97
2019-01-09T17:38:12.081Z,2.97
2019-01-09T17:41:00.638Z,3.20
2019-01-09T17:44:09.318Z,3.37
2019-01-09T17:46:57.454Z,3.07
2019-01-09T17:49:45.634Z,2.27
2019-01-09T17:52:14.674Z,2.50
2019-01-09T17:54:43.724Z,3.03
2019-01-09T17:57:31.879Z,2.43
2019-01-09T18:00:21.371Z,3.10
2019-01-09T18:03:09.538Z,3.23
2019-01-09T18:05:57.747Z,3.83
2019-01-09T18:08:45.943Z,3.00
2019-01-09T18:11:34.211Z,4.23
2019-01-09T18:14:22.391Z,3.73
2019-01-09T18:17:10.614Z,3.70
2019-01-09T18:19:58.775Z,3.53
2019-01-09T18:22:47.191Z,2.93
2019-01-09T18:25:18.311Z,4.10
2019-01-09T18:28:06.787Z,4.37
2019-01-09T18:31:03.551Z,3.87
2019-01-09T18:33:41.027Z,3.50
2019-01-09T18:36:22.158Z,3.80
2019-01-09T18:39:04.431Z,3.40
2019-01-09T18:42:11.819Z,3.63
2019-01-09T18:45:19.095Z,3.13
2019-01-09T18:48:26.455Z,3.13
2019-01-09T18:51:36.718Z,4.10
2019-01-09T18:54:18.155Z,3.67
2019-01-09T18:56:58.918Z,3.00
2019-01-09T18:59:40.042Z,2.90
2019-01-09T19:02:20.931Z,3.37
2019-01-09T19:05:02.498Z,3.80
2019-01-09T19:07:43.311Z,5.40
2019-01-09T19:10:16.565Z,4.08
2019-01-09T19:12:45.850Z,3.63
2019-01-09T19:15:15.339Z,3.90
2019-01-09T19:17:44.471Z,3.57
2019-01-09T19:20:14.731Z,3.53
2019-01-09T19:23:02.911Z,4.10
2019-01-09T19:25:51.091Z,3.30
2019-01-09T19:28:39.391Z,3.17
2019-01-09T19:31:20.484Z,3.30
2019-01-09T19:34:01.606Z,3.73
2019-01-09T19:36:42.595Z,4.07
2019-01-09T19:39:23.828Z,3.03
2019-01-09T19:42:04.555Z,4.13
2019-01-09T19:44:45.592Z,2.80
2019-01-09T19:47:14.824Z,3.00
2019-01-09T19:50:03.076Z,3.47
2019-01-09T19:52:51.565Z,3.17
2019-01-09T19:55:39.797Z,3.30
2019-01-09T19:58:28.039Z,3.60
2019-01-09T20:03:45.327Z,3.30
2019-01-09T20:09:21.872Z,3.63
2019-01-09T20:11:50.980Z,4.60
2019-01-09T20:14:20.117Z,3.30
2019-01-09T20:16:49.216Z,3.70
2019-01-09T20:19:18.244Z,3.37
2019-01-09T20:21:47.647Z,3.37
2019-01-09T20:24:16.682Z,2.93
2019-01-09T20:26:45.922Z,3.10
2019-01-09T20:29:15.117Z,3.60
2019-01-09T20:31:44.196Z,2.97
2019-01-09T20:34:13.478Z,3.40
2019-01-09T20:36:42.641Z,3.30
2019-01-09T20:39:12.084Z,3.07
2019-01-09T20:41:41.037Z,3.17
2019-01-09T20:44:10.038Z,3.10
2019-01-09T20:46:39.348Z,2.97
2019-01-09T20:49:08.481Z,3.20
2019-01-09T20:51:37.078Z,2.50
2019-01-09T20:54:05.632Z,2.77
2019-01-09T20:56:34.541Z,2.80
2019-01-09T20:59:03.161Z,3.40
2019-01-09T21:01:31.896Z,2.90
2019-01-09T21:04:00.672Z,3.00
2019-01-09T21:06:29.176Z,3.10
2019-01-09T21:08:59.725Z,2.83
2019-01-09T21:11:27.856Z,3.03
2019-01-09T21:13:56.381Z,3.07
2019-01-09T21:16:24.922Z,3.07
2019-01-09T21:18:53.413Z,2.70
2019-01-09T21:21:22.010Z,2.73
2019-01-09T21:23:50.569Z,3.30
2019-01-09T21:26:19.057Z,3.40
2019-01-09T21:28:47.566Z,3.87
2019-01-09T21:31:15.973Z,3.10
2019-01-09T21:33:44.381Z,3.03
2019-01-09T21:36:13.097Z,3.33
2019-01-09T21:38:41.585Z,3.10
2019-01-09T21:41:11.978Z,3.00
2019-01-09T21:43:40.585Z,2.90
2019-01-09T21:46:09.169Z,2.80
2019-01-09T21:48:37.637Z,2.90
2019-01-09T21:51:06.206Z,3.23
2019-01-09T21:53:34.762Z,3.13
2019-01-09T21:56:03.238Z,2.73
2019-01-09T21:58:31.742Z,3.00
2019-01-09T22:01:00.234Z,2.97
2019-01-09T22:03:28.713Z,2.70
2019-01-09T22:05:57.202Z,2.97
2019-01-09T22:08:25.854Z,2.97
2019-01-09T22:10:54.482Z,2.90
2019-01-09T22:13:23.007Z,2.47
2019-01-09T22:15:51.834Z,2.80
2019-01-09T22:18:20.402Z,3.13
2019-01-09T22:20:48.910Z,2.60
2019-01-09T22:23:17.478Z,2.57
2019-01-09T22:25:46.030Z,2.63
2019-01-09T22:28:14.535Z,2.60
2019-01-09T22:30:43.079Z,2.80
2019-01-09T22:33:11.853Z,2.97
2019-01-09T22:35:41.650Z,2.60
2019-01-09T22:38:10.482Z,2.53
2019-01-09T22:40:38.966Z,2.60
2019-01-09T22:43:07.474Z,3.30
2019-01-09T22:45:35.942Z,3.40
2019-01-09T22:48:04.407Z,3.17
2019-01-09T22:50:32.920Z,3.33
2019-01-09T22:53:01.376Z,4.17
2019-01-09T22:55:29.839Z,3.57
2019-01-09T22:57:58.331Z,3.07
2019-01-09T23:00:43.233Z,2.97
2019-01-09T23:03:11.795Z,2.70
2019-01-09T23:05:40.475Z,2.70
2019-01-09T23:08:09.062Z,3.20
2019-01-09T23:10:37.862Z,3.00
2019-01-09T23:13:06.339Z,2.20
2019-01-09T23:15:34.851Z,2.67
2019-01-09T23:18:03.554Z,2.93
2019-01-09T23:20:32.227Z,2.97
2019-01-09T23:23:00.706Z,2.40
2019-01-09T23:25:29.495Z,2.63
2019-01-09T23:27:57.979Z,3.03
2019-01-09T23:30:26.499Z,2.73
2019-01-09T23:32:55.109Z,2.63
2019-01-09T23:35:23.567Z,2.57
2019-01-09T23:37:52.120Z,2.73
2019-01-09T23:40:20.626Z,2.20
2019-01-09T23:42:49.180Z,2.63
2019-01-09T23:45:18.019Z,3.00
2019-01-09T23:47:46.515Z,2.87
2019-01-09T23:50:15.091Z,2.70
2019-01-09T23:52:43.571Z,2.97
2019-01-09T23:55:12.083Z,2.40
2019-01-09T23:57:40.617Z,3.10
